首页
METAR-TAF:

METAR-TAF

机场 :

乌鲁木齐, 中华人民共和国

乌鲁木齐地窝堡国际机场

纬度: 43-54N, 经度: 087-28E, 海拔: 654米

当前天气观测

该预报发布于11分钟前的00:00 UTC
风速2节,风向西转西北
温度 -8°C
湿度 92%
气压 1022 hPa
能見度: 0100
冻雾

METAR: ZWWW 250000Z 29001MPS 0100 R25/0150N FZFG VV001 M08/M09 Q1022 BECMG TL0150 0400 FZFG

时间: 06:11 (00:11 UTC)

预报

该预报发布于3小时和1分钟前的21:10 UTC
预报有效从25日的 00点(UTC)到 25日的 24点(UTC)
风速4节,风向
能見度: 1400
多云层高于1100英尺
轻雾
成为
从 25日的 04点(UTC)到 25日的 05点(UTC)
风速4节,风向
能見度: 2000
轻雾
成为
从 25日的 13点(UTC)到 25日的 14点(UTC)
风速4节,风向

TAF: ZWWW 242110Z 2500/2524 18002MPS 1400 BR BKN011 TXM01/08Z TNM07/23Z BECMG 2504/2505 36002MPS 2000 BR NSC BECMG 2513/2514 18002MPS

超过4000个机场的气象观测和天气预报(METAR&TAF报告)。

可查询的气象台以黄色和红色小点在地图上表示。

将鼠标移到小点上方,可查看气象台名称。

然后点击查看天气观测和预报。

如需切换地图:点击带黑十字的绿色按钮放大地图;点击带横线的绿色按钮缩小地图;或者点击绿色箭头查看邻近地区的地图。


METAR-TAF: